sensor_id;sensor_type;location;lat;lon;timestamp;P1;durP1;ratioP1;P2;durP2;ratioP2
47772;SDS011;33534;51.028;13.716;2022-11-02T00:01:38;42.50;;;20.65;;
47772;SDS011;33534;51.028;13.716;2022-11-02T00:04:05;38.70;;;18.05;;
47772;SDS011;33534;51.028;13.716;2022-11-02T00:06:33;32.10;;;16.40;;
47772;SDS011;33534;51.028;13.716;2022-11-02T00:08:59;29.80;;;13.93;;
47772;SDS011;33534;51.028;13.716;2022-11-02T00:11:25;22.70;;;11.10;;
47772;SDS011;33534;51.028;13.716;2022-11-02T00:13:51;18.50;;;9.48;;
47772;SDS011;33534;51.028;13.716;2022-11-02T00:16:18;20.67;;;10.38;;
47772;SDS011;33534;51.028;13.716;2022-11-02T00:18:46;27.52;;;12.68;;
47772;SDS011;33534;51.028;13.716;2022-11-02T00:21:12;31.83;;;15.35;;
47772;SDS011;33534;51.028;13.716;2022-11-02T00:23:40;35.58;;;15.70;;
47772;SDS011;33534;51.028;13.716;2022-11-02T00:26:06;44.08;;;20.98;;
47772;SDS011;33534;51.028;13.716;2022-11-02T00:28:32;41.50;;;19.35;;
47772;SDS011;33534;51.028;13.716;2022-11-02T00:30:58;47.60;;;20.05;;
47772;SDS011;33534;51.028;13.716;2022-11-02T00:33:24;52.22;;;22.25;;
47772;SDS011;33534;51.028;13.716;2022-11-02T00:35:51;49.30;;;22.17;;
47772;SDS011;33534;51.028;13.716;2022-11-02T00:38:18;36.42;;;20.33;;
47772;SDS011;33534;51.028;13.716;2022-11-02T00:40:44;49.10;;;20.65;;
47772;SDS011;33534;51.028;13.716;2022-11-02T00:43:10;39.42;;;18.60;;
47772;SDS011;33534;51.028;13.716;2022-11-02T00:45:36;36.83;;;18.75;;
47772;SDS011;33534;51.028;13.716;2022-11-02T00:48:02;44.13;;;16.05;;
47772;SDS011;33534;51.028;13.716;2022-11-02T00:50:29;40.78;;;18.92;;
47772;SDS011;33534;51.028;13.716;2022-11-02T00:52:55;43.53;;;18.08;;
47772;SDS011;33534;51.028;13.716;2022-11-02T00:55:21;45.10;;;21.67;;
47772;SDS011;33534;51.028;13.716;2022-11-02T00:57:47;47.10;;;22.02;;
47772;SDS011;33534;51.028;13.716;2022-11-02T01:00:13;56.00;;;25.20;;
47772;SDS011;33534;51.028;13.716;2022-11-02T01:02:39;52.58;;;23.63;;
47772;SDS011;33534;51.028;13.716;2022-11-02T01:05:05;48.45;;;21.73;;
47772;SDS011;33534;51.028;13.716;2022-11-02T01:07:32;42.47;;;20.23;;
47772;SDS011;33534;51.028;13.716;2022-11-02T01:09:58;37.85;;;20.25;;
47772;SDS011;33534;51.028;13.716;2022-11-02T01:12:24;44.80;;;20.88;;
47772;SDS011;33534;51.028;13.716;2022-11-02T01:14:50;38.08;;;19.15;;
47772;SDS011;33534;51.028;13.716;2022-11-02T01:17:16;48.47;;;20.65;;
47772;SDS011;33534;51.028;13.716;2022-11-02T01:19:44;37.42;;;17.95;;
47772;SDS011;33534;51.028;13.716;2022-11-02T01:22:10;43.58;;;21.33;;
47772;SDS011;33534;51.028;13.716;2022-11-02T01:24:39;41.58;;;21.48;;
47772;SDS011;33534;51.028;13.716;2022-11-02T01:27:05;44.67;;;19.73;;
47772;SDS011;33534;51.028;13.716;2022-11-02T01:29:31;41.05;;;17.85;;
47772;SDS011;33534;51.028;13.716;2022-11-02T01:31:57;40.15;;;17.80;;
47772;SDS011;33534;51.028;13.716;2022-11-02T01:34:30;41.70;;;17.42;;
47772;SDS011;33534;51.028;13.716;2022-11-02T01:36:56;40.53;;;18.33;;
47772;SDS011;33534;51.028;13.716;2022-11-02T01:39:23;51.67;;;21.83;;
47772;SDS011;33534;51.028;13.716;2022-11-02T01:41:52;37.95;;;18.67;;
47772;SDS011;33534;51.028;13.716;2022-11-02T01:44:24;43.40;;;19.33;;
47772;SDS011;33534;51.028;13.716;2022-11-02T01:46:51;39.55;;;17.77;;
47772;SDS011;33534;51.028;13.716;2022-11-02T01:49:18;31.10;;;15.30;;
47772;SDS011;33534;51.028;13.716;2022-11-02T01:51:45;27.55;;;12.55;;
47772;SDS011;33534;51.028;13.716;2022-11-02T01:54:15;32.08;;;13.90;;
47772;SDS011;33534;51.028;13.716;2022-11-02T01:56:42;35.00;;;12.55;;
47772;SDS011;33534;51.028;13.716;2022-11-02T01:59:12;26.73;;;11.02;;
47772;SDS011;33534;51.028;13.716;2022-11-02T02:01:39;17.17;;;7.78;;
47772;SDS011;33534;51.028;13.716;2022-11-02T02:04:05;11.18;;;6.43;;
47772;SDS011;33534;51.028;13.716;2022-11-02T02:06:31;12.40;;;6.30;;
47772;SDS011;33534;51.028;13.716;2022-11-02T02:08:57;17.15;;;7.53;;
47772;SDS011;33534;51.028;13.716;2022-11-02T02:11:35;17.05;;;7.35;;
47772;SDS011;33534;51.028;13.716;2022-11-02T02:19:05;28.77;;;11.65;;
47772;SDS011;33534;51.028;13.716;2022-11-02T02:21:39;35.10;;;14.77;;
47772;SDS011;33534;51.028;13.716;2022-11-02T02:26:59;20.30;;;9.55;;
47772;SDS011;33534;51.028;13.716;2022-11-02T02:29:34;22.50;;;8.80;;
47772;SDS011;33534;51.028;13.716;2022-11-02T02:32:08;15.60;;;7.07;;
47772;SDS011;33534;51.028;13.716;2022-11-02T02:35:22;13.23;;;6.65;;
47772;SDS011;33534;51.028;13.716;2022-11-02T02:42:27;16.20;;;7.45;;
47772;SDS011;33534;51.028;13.716;2022-11-02T02:47:29;19.90;;;8.00;;
47772;SDS011;33534;51.028;13.716;2022-11-02T02:58:24;14.95;;;6.13;;
47772;SDS011;33534;51.028;13.716;2022-11-02T03:15:03;14.35;;;5.68;;
47772;SDS011;33534;51.028;13.716;2022-11-02T03:17:31;14.07;;;5.63;;
47772;SDS011;33534;51.028;13.716;2022-11-02T03:20:36;12.40;;;5.22;;
47772;SDS011;33534;51.028;13.716;2022-11-02T03:30:23;12.30;;;5.05;;
47772;SDS011;33534;51.028;13.716;2022-11-02T03:35:36;11.55;;;5.20;;
47772;SDS011;33534;51.028;13.716;2022-11-02T03:38:40;12.68;;;4.68;;
47772;SDS011;33534;51.028;13.716;2022-11-02T03:41:00;15.10;;;4.50;;
47772;SDS011;33534;51.028;13.716;2022-11-02T03:43:31;10.55;;;4.03;;
47772;SDS011;33534;51.028;13.716;2022-11-02T03:46:04;5.93;;;3.63;;
47772;SDS011;33534;51.028;13.716;2022-11-02T03:48:39;12.40;;;4.43;;
47772;SDS011;33534;51.028;13.716;2022-11-02T03:51:07;5.00;;;3.42;;
47772;SDS011;33534;51.028;13.716;2022-11-02T03:53:36;9.57;;;4.22;;
47772;SDS011;33534;51.028;13.716;2022-11-02T03:56:28;8.02;;;3.55;;
47772;SDS011;33534;51.028;13.716;2022-11-02T03:59:07;7.82;;;3.72;;
47772;SDS011;33534;51.028;13.716;2022-11-02T04:02:15;9.70;;;3.97;;
47772;SDS011;33534;51.028;13.716;2022-11-02T04:04:34;9.13;;;3.17;;
47772;SDS011;33534;51.028;13.716;2022-11-02T04:09:40;10.27;;;2.72;;
47772;SDS011;33534;51.028;13.716;2022-11-02T04:15:08;10.93;;;5.50;;
47772;SDS011;33534;51.028;13.716;2022-11-02T04:28:19;7.13;;;3.28;;
47772;SDS011;33534;51.028;13.716;2022-11-02T04:31:03;8.82;;;3.20;;
47772;SDS011;33534;51.028;13.716;2022-11-02T04:33:38;6.63;;;2.42;;
47772;SDS011;33534;51.028;13.716;2022-11-02T04:36:10;7.38;;;2.58;;
47772;SDS011;33534;51.028;13.716;2022-11-02T04:38:42;6.57;;;2.65;;
47772;SDS011;33534;51.028;13.716;2022-11-02T04:41:18;13.18;;;3.15;;
47772;SDS011;33534;51.028;13.716;2022-11-02T04:46:56;12.05;;;2.72;;
47772;SDS011;33534;51.028;13.716;2022-11-02T04:49:34;8.13;;;3.05;;
47772;SDS011;33534;51.028;13.716;2022-11-02T04:52:06;7.85;;;2.38;;
47772;SDS011;33534;51.028;13.716;2022-11-02T04:54:37;7.38;;;2.40;;
47772;SDS011;33534;51.028;13.716;2022-11-02T04:57:05;8.45;;;3.22;;
47772;SDS011;33534;51.028;13.716;2022-11-02T04:59:52;6.60;;;2.50;;
47772;SDS011;33534;51.028;13.716;2022-11-02T05:02:29;8.20;;;2.88;;
47772;SDS011;33534;51.028;13.716;2022-11-02T05:04:55;8.60;;;4.00;;
47772;SDS011;33534;51.028;13.716;2022-11-02T05:07:27;10.60;;;3.83;;
47772;SDS011;33534;51.028;13.716;2022-11-02T05:09:56;10.82;;;3.05;;
47772;SDS011;33534;51.028;13.716;2022-11-02T05:12:24;8.40;;;2.72;;
47772;SDS011;33534;51.028;13.716;2022-11-02T05:14:51;10.20;;;2.92;;
47772;SDS011;33534;51.028;13.716;2022-11-02T05:17:21;8.88;;;3.10;;
47772;SDS011;33534;51.028;13.716;2022-11-02T05:19:53;12.68;;;3.38;;
47772;SDS011;33534;51.028;13.716;2022-11-02T05:22:22;8.55;;;3.05;;
47772;SDS011;33534;51.028;13.716;2022-11-02T05:25:09;7.95;;;3.22;;
47772;SDS011;33534;51.028;13.716;2022-11-02T05:27:45;4.90;;;2.67;;
47772;SDS011;33534;51.028;13.716;2022-11-02T05:30:14;5.93;;;3.03;;
47772;SDS011;33534;51.028;13.716;2022-11-02T05:32:55;8.88;;;2.90;;
47772;SDS011;33534;51.028;13.716;2022-11-02T05:35:29;9.90;;;3.25;;
47772;SDS011;33534;51.028;13.716;2022-11-02T05:37:57;11.57;;;3.63;;
47772;SDS011;33534;51.028;13.716;2022-11-02T05:40:25;8.80;;;3.17;;
47772;SDS011;33534;51.028;13.716;2022-11-02T05:42:57;10.43;;;2.85;;
47772;SDS011;33534;51.028;13.716;2022-11-02T05:45:29;8.60;;;3.50;;
47772;SDS011;33534;51.028;13.716;2022-11-02T05:48:01;9.93;;;3.58;;
47772;SDS011;33534;51.028;13.716;2022-11-02T05:50:31;13.05;;;3.97;;
47772;SDS011;33534;51.028;13.716;2022-11-02T05:53:04;14.20;;;3.78;;
47772;SDS011;33534;51.028;13.716;2022-11-02T05:55:33;15.20;;;4.07;;
47772;SDS011;33534;51.028;13.716;2022-11-02T05:58:02;12.43;;;3.47;;
47772;SDS011;33534;51.028;13.716;2022-11-02T06:00:31;9.73;;;3.08;;
47772;SDS011;33534;51.028;13.716;2022-11-02T06:02:59;8.15;;;3.33;;
47772;SDS011;33534;51.028;13.716;2022-11-02T06:05:25;6.32;;;2.88;;
47772;SDS011;33534;51.028;13.716;2022-11-02T06:07:54;10.80;;;2.70;;
47772;SDS011;33534;51.028;13.716;2022-11-02T06:10:35;8.30;;;3.20;;
47772;SDS011;33534;51.028;13.716;2022-11-02T06:13:04;11.90;;;3.67;;
47772;SDS011;33534;51.028;13.716;2022-11-02T06:17:58;9.13;;;2.95;;
47772;SDS011;33534;51.028;13.716;2022-11-02T06:20:40;12.02;;;4.07;;
47772;SDS011;33534;51.028;13.716;2022-11-02T06:23:19;11.95;;;4.28;;
47772;SDS011;33534;51.028;13.716;2022-11-02T06:25:56;11.18;;;3.10;;
47772;SDS011;33534;51.028;13.716;2022-11-02T06:28:28;12.35;;;3.63;;
47772;SDS011;33534;51.028;13.716;2022-11-02T06:30:55;12.13;;;3.80;;
47772;SDS011;33534;51.028;13.716;2022-11-02T06:33:23;13.02;;;4.07;;
47772;SDS011;33534;51.028;13.716;2022-11-02T06:35:53;12.68;;;4.18;;
47772;SDS011;33534;51.028;13.716;2022-11-02T06:38:30;9.10;;;2.80;;
47772;SDS011;33534;51.028;13.716;2022-11-02T06:41:09;9.63;;;2.60;;
47772;SDS011;33534;51.028;13.716;2022-11-02T06:43:43;8.57;;;2.72;;
47772;SDS011;33534;51.028;13.716;2022-11-02T06:46:23;6.90;;;2.15;;
47772;SDS011;33534;51.028;13.716;2022-11-02T06:49:03;8.30;;;2.80;;
47772;SDS011;33534;51.028;13.716;2022-11-02T06:51:32;12.43;;;2.80;;
47772;SDS011;33534;51.028;13.716;2022-11-02T06:54:08;7.32;;;2.33;;
47772;SDS011;33534;51.028;13.716;2022-11-02T06:56:38;8.73;;;2.38;;
47772;SDS011;33534;51.028;13.716;2022-11-02T07:01:39;14.65;;;3.10;;
47772;SDS011;33534;51.028;13.716;2022-11-02T07:04:43;10.13;;;2.80;;
47772;SDS011;33534;51.028;13.716;2022-11-02T07:07:29;12.27;;;2.75;;
47772;SDS011;33534;51.028;13.716;2022-11-02T07:10:04;11.95;;;3.05;;
47772;SDS011;33534;51.028;13.716;2022-11-02T07:12:36;6.47;;;2.05;;
47772;SDS011;33534;51.028;13.716;2022-11-02T07:15:08;9.38;;;2.50;;
47772;SDS011;33534;51.028;13.716;2022-11-02T07:17:45;8.55;;;2.15;;
47772;SDS011;33534;51.028;13.716;2022-11-02T07:20:11;10.43;;;2.42;;
47772;SDS011;33534;51.028;13.716;2022-11-02T07:22:56;10.30;;;2.63;;
47772;SDS011;33534;51.028;13.716;2022-11-02T07:25:22;14.45;;;2.45;;
47772;SDS011;33534;51.028;13.716;2022-11-02T07:27:59;10.98;;;2.30;;
47772;SDS011;33534;51.028;13.716;2022-11-02T07:30:26;8.35;;;3.00;;
47772;SDS011;33534;51.028;13.716;2022-11-02T07:32:58;10.30;;;3.20;;
47772;SDS011;33534;51.028;13.716;2022-11-02T07:35:29;14.30;;;3.30;;
47772;SDS011;33534;51.028;13.716;2022-11-02T07:38:00;8.18;;;4.20;;
47772;SDS011;33534;51.028;13.716;2022-11-02T07:40:37;9.82;;;2.92;;
47772;SDS011;33534;51.028;13.716;2022-11-02T07:43:10;9.25;;;3.20;;
47772;SDS011;33534;51.028;13.716;2022-11-02T07:45:39;11.88;;;2.38;;
47772;SDS011;33534;51.028;13.716;2022-11-02T07:48:07;7.63;;;2.70;;
47772;SDS011;33534;51.028;13.716;2022-11-02T07:50:36;12.70;;;2.67;;
47772;SDS011;33534;51.028;13.716;2022-11-02T07:53:08;12.55;;;2.92;;
47772;SDS011;33534;51.028;13.716;2022-11-02T07:58:18;9.63;;;3.38;;
47772;SDS011;33534;51.028;13.716;2022-11-02T08:00:44;11.35;;;3.25;;
47772;SDS011;33534;51.028;13.716;2022-11-02T08:03:20;9.02;;;2.63;;
47772;SDS011;33534;51.028;13.716;2022-11-02T08:05:49;6.95;;;2.80;;
47772;SDS011;33534;51.028;13.716;2022-11-02T08:08:18;6.75;;;2.65;;
47772;SDS011;33534;51.028;13.716;2022-11-02T08:10:51;11.13;;;3.10;;
47772;SDS011;33534;51.028;13.716;2022-11-02T08:13:37;9.73;;;3.58;;
47772;SDS011;33534;51.028;13.716;2022-11-02T08:16:09;9.70;;;2.50;;
47772;SDS011;33534;51.028;13.716;2022-11-02T08:18:37;7.70;;;2.78;;
47772;SDS011;33534;51.028;13.716;2022-11-02T08:21:12;13.93;;;4.13;;
47772;SDS011;33534;51.028;13.716;2022-11-02T08:24:00;10.20;;;3.13;;
47772;SDS011;33534;51.028;13.716;2022-11-02T08:26:28;16.45;;;3.80;;
47772;SDS011;33534;51.028;13.716;2022-11-02T08:29:01;12.60;;;4.50;;
47772;SDS011;33534;51.028;13.716;2022-11-02T08:31:59;13.80;;;3.63;;
47772;SDS011;33534;51.028;13.716;2022-11-02T08:41:02;8.48;;;2.67;;
47772;SDS011;33534;51.028;13.716;2022-11-02T08:44:03;11.93;;;3.03;;
47772;SDS011;33534;51.028;13.716;2022-11-02T08:53:05;9.70;;;3.08;;
47772;SDS011;33534;51.028;13.716;2022-11-02T09:02:00;12.82;;;2.85;;
47772;SDS011;33534;51.028;13.716;2022-11-02T09:04:31;9.13;;;2.25;;
47772;SDS011;33534;51.028;13.716;2022-11-02T09:07:00;13.07;;;2.40;;
47772;SDS011;33534;51.028;13.716;2022-11-02T09:12:30;8.70;;;2.30;;
47772;SDS011;33534;51.028;13.716;2022-11-02T09:15:28;10.82;;;2.35;;
47772;SDS011;33534;51.028;13.716;2022-11-02T09:17:55;8.57;;;2.13;;
47772;SDS011;33534;51.028;13.716;2022-11-02T09:20:21;14.35;;;2.55;;
47772;SDS011;33534;51.028;13.716;2022-11-02T09:23:07;10.45;;;2.55;;
47772;SDS011;33534;51.028;13.716;2022-11-02T09:25:44;12.05;;;2.45;;
47772;SDS011;33534;51.028;13.716;2022-11-02T09:28:13;11.30;;;2.38;;
47772;SDS011;33534;51.028;13.716;2022-11-02T09:30:45;13.13;;;2.53;;
47772;SDS011;33534;51.028;13.716;2022-11-02T09:33:16;7.43;;;2.08;;
47772;SDS011;33534;51.028;13.716;2022-11-02T09:55:10;9.93;;;2.03;;
47772;SDS011;33534;51.028;13.716;2022-11-02T09:58:10;11.95;;;2.60;;
47772;SDS011;33534;51.028;13.716;2022-11-02T10:00:40;6.03;;;1.60;;
47772;SDS011;33534;51.028;13.716;2022-11-02T10:06:14;6.18;;;1.90;;
47772;SDS011;33534;51.028;13.716;2022-11-02T10:14:34;8.68;;;2.22;;
47772;SDS011;33534;51.028;13.716;2022-11-02T10:17:14;6.72;;;1.50;;
47772;SDS011;33534;51.028;13.716;2022-11-02T10:19:50;11.15;;;2.25;;
47772;SDS011;33534;51.028;13.716;2022-11-02T10:22:20;11.32;;;2.13;;
47772;SDS011;33534;51.028;13.716;2022-11-02T10:24:59;7.88;;;1.88;;
47772;SDS011;33534;51.028;13.716;2022-11-02T10:27:40;7.82;;;1.70;;
47772;SDS011;33534;51.028;13.716;2022-11-02T10:30:20;10.05;;;2.10;;
47772;SDS011;33534;51.028;13.716;2022-11-02T10:32:51;6.45;;;1.75;;
47772;SDS011;33534;51.028;13.716;2022-11-02T10:35:19;9.13;;;2.40;;
47772;SDS011;33534;51.028;13.716;2022-11-02T10:51:40;8.35;;;2.30;;
47772;SDS011;33534;51.028;13.716;2022-11-02T10:54:10;11.13;;;2.65;;
47772;SDS011;33534;51.028;13.716;2022-11-02T10:57:03;5.88;;;2.33;;
47772;SDS011;33534;51.028;13.716;2022-11-02T11:02:25;5.10;;;1.85;;
47772;SDS011;33534;51.028;13.716;2022-11-02T11:05:03;6.93;;;2.25;;
47772;SDS011;33534;51.028;13.716;2022-11-02T11:07:41;9.85;;;2.20;;
47772;SDS011;33534;51.028;13.716;2022-11-02T11:10:13;9.02;;;2.47;;
47772;SDS011;33534;51.028;13.716;2022-11-02T11:13:00;5.88;;;1.92;;
47772;SDS011;33534;51.028;13.716;2022-11-02T11:18:16;8.63;;;2.38;;
47772;SDS011;33534;51.028;13.716;2022-11-02T11:21:06;5.15;;;1.80;;
47772;SDS011;33534;51.028;13.716;2022-11-02T11:23:45;5.93;;;1.90;;
47772;SDS011;33534;51.028;13.716;2022-11-02T11:26:40;7.70;;;1.80;;
47772;SDS011;33534;51.028;13.716;2022-11-02T11:29:21;4.90;;;1.70;;
47772;SDS011;33534;51.028;13.716;2022-11-02T11:31:50;14.25;;;2.78;;
47772;SDS011;33534;51.028;13.716;2022-11-02T11:34:27;7.88;;;2.03;;
47772;SDS011;33534;51.028;13.716;2022-11-02T11:37:17;6.30;;;2.65;;
47772;SDS011;33534;51.028;13.716;2022-11-02T11:39:44;5.53;;;1.80;;
47772;SDS011;33534;51.028;13.716;2022-11-02T11:42:21;8.70;;;2.65;;
47772;SDS011;33534;51.028;13.716;2022-11-02T11:45:06;8.52;;;2.25;;
47772;SDS011;33534;51.028;13.716;2022-11-02T11:47:36;8.55;;;1.83;;
47772;SDS011;33534;51.028;13.716;2022-11-02T11:50:27;9.57;;;2.13;;
47772;SDS011;33534;51.028;13.716;2022-11-02T11:55:54;9.35;;;1.88;;
47772;SDS011;33534;51.028;13.716;2022-11-02T12:03:57;8.15;;;1.90;;
47772;SDS011;33534;51.028;13.716;2022-11-02T12:09:09;5.63;;;1.50;;
47772;SDS011;33534;51.028;13.716;2022-11-02T12:31:11;6.82;;;1.65;;
47772;SDS011;33534;51.028;13.716;2022-11-02T12:51:33;10.10;;;2.10;;
47772;SDS011;33534;51.028;13.716;2022-11-02T12:57:06;9.38;;;2.00;;
47772;SDS011;33534;51.028;13.716;2022-11-02T12:59:35;12.52;;;2.60;;
47772;SDS011;33534;51.028;13.716;2022-11-02T13:02:09;8.88;;;2.90;;
47772;SDS011;33534;51.028;13.716;2022-11-02T13:04:42;4.97;;;2.00;;
47772;SDS011;33534;51.028;13.716;2022-11-02T13:07:11;5.95;;;2.33;;
47772;SDS011;33534;51.028;13.716;2022-11-02T13:12:14;8.38;;;1.70;;
47772;SDS011;33534;51.028;13.716;2022-11-02T13:14:41;8.23;;;1.83;;
47772;SDS011;33534;51.028;13.716;2022-11-02T13:22:07;7.45;;;1.75;;
47772;SDS011;33534;51.028;13.716;2022-11-02T13:24:35;8.93;;;2.25;;
47772;SDS011;33534;51.028;13.716;2022-11-02T13:27:03;7.93;;;1.95;;
47772;SDS011;33534;51.028;13.716;2022-11-02T13:29:39;9.85;;;2.70;;
47772;SDS011;33534;51.028;13.716;2022-11-02T13:32:14;8.05;;;1.83;;
47772;SDS011;33534;51.028;13.716;2022-11-02T13:34:43;10.55;;;2.13;;
47772;SDS011;33534;51.028;13.716;2022-11-02T13:37:15;7.38;;;1.83;;
47772;SDS011;33534;51.028;13.716;2022-11-02T13:39:45;6.75;;;1.65;;
47772;SDS011;33534;51.028;13.716;2022-11-02T13:42:59;6.80;;;2.42;;
47772;SDS011;33534;51.028;13.716;2022-11-02T13:45:15;9.52;;;2.33;;
47772;SDS011;33534;51.028;13.716;2022-11-02T13:50:18;9.35;;;2.28;;
47772;SDS011;33534;51.028;13.716;2022-11-02T13:52:50;7.13;;;2.13;;
47772;SDS011;33534;51.028;13.716;2022-11-02T13:55:21;7.45;;;1.80;;
47772;SDS011;33534;51.028;13.716;2022-11-02T13:57:56;8.57;;;2.13;;
47772;SDS011;33534;51.028;13.716;2022-11-02T14:02:50;8.57;;;2.25;;
47772;SDS011;33534;51.028;13.716;2022-11-02T14:05:30;8.07;;;1.98;;
47772;SDS011;33534;51.028;13.716;2022-11-02T14:08:02;9.68;;;1.98;;
47772;SDS011;33534;51.028;13.716;2022-11-02T14:12:55;10.88;;;2.80;;
47772;SDS011;33534;51.028;13.716;2022-11-02T14:25:52;5.88;;;1.80;;
47772;SDS011;33534;51.028;13.716;2022-11-02T14:30:44;5.65;;;1.63;;
47772;SDS011;33534;51.028;13.716;2022-11-02T14:33:15;8.50;;;1.73;;
47772;SDS011;33534;51.028;13.716;2022-11-02T14:35:44;11.18;;;2.58;;
47772;SDS011;33534;51.028;13.716;2022-11-02T14:46:11;10.05;;;2.20;;
47772;SDS011;33534;51.028;13.716;2022-11-02T14:48:49;8.02;;;2.85;;
47772;SDS011;33534;51.028;13.716;2022-11-02T14:51:52;8.75;;;2.15;;
47772;SDS011;33534;51.028;13.716;2022-11-02T14:54:17;4.70;;;1.83;;
47772;SDS011;33534;51.028;13.716;2022-11-02T14:59:27;6.57;;;1.73;;
47772;SDS011;33534;51.028;13.716;2022-11-02T15:04:20;8.40;;;1.92;;
47772;SDS011;33534;51.028;13.716;2022-11-02T15:07:05;6.60;;;2.00;;
47772;SDS011;33534;51.028;13.716;2022-11-02T15:12:20;8.57;;;2.35;;
47772;SDS011;33534;51.028;13.716;2022-11-02T15:19:41;6.72;;;1.60;;
47772;SDS011;33534;51.028;13.716;2022-11-02T15:22:43;11.40;;;2.20;;
47772;SDS011;33534;51.028;13.716;2022-11-02T15:27:32;6.03;;;2.13;;
47772;SDS011;33534;51.028;13.716;2022-11-02T15:29:59;7.30;;;2.35;;
47772;SDS011;33534;51.028;13.716;2022-11-02T15:32:25;7.90;;;2.33;;
47772;SDS011;33534;51.028;13.716;2022-11-02T15:34:53;7.70;;;2.60;;
47772;SDS011;33534;51.028;13.716;2022-11-02T15:37:23;8.68;;;2.33;;
47772;SDS011;33534;51.028;13.716;2022-11-02T15:39:54;5.22;;;2.00;;
47772;SDS011;33534;51.028;13.716;2022-11-02T15:44:57;9.32;;;3.08;;
47772;SDS011;33534;51.028;13.716;2022-11-02T15:52:32;15.85;;;2.85;;
47772;SDS011;33534;51.028;13.716;2022-11-02T15:55:07;7.50;;;2.22;;
47772;SDS011;33534;51.028;13.716;2022-11-02T16:02:40;6.13;;;2.47;;
47772;SDS011;33534;51.028;13.716;2022-11-02T16:05:14;6.95;;;2.67;;
47772;SDS011;33534;51.028;13.716;2022-11-02T16:07:44;7.45;;;3.45;;
47772;SDS011;33534;51.028;13.716;2022-11-02T16:10:11;11.20;;;3.20;;
47772;SDS011;33534;51.028;13.716;2022-11-02T16:12:43;6.13;;;2.97;;
47772;SDS011;33534;51.028;13.716;2022-11-02T16:15:11;7.75;;;2.72;;
47772;SDS011;33534;51.028;13.716;2022-11-02T16:17:37;8.77;;;2.53;;
47772;SDS011;33534;51.028;13.716;2022-11-02T16:20:13;7.90;;;2.92;;
47772;SDS011;33534;51.028;13.716;2022-11-02T16:22:39;16.52;;;3.70;;
47772;SDS011;33534;51.028;13.716;2022-11-02T16:27:37;8.43;;;3.72;;
47772;SDS011;33534;51.028;13.716;2022-11-02T16:30:04;12.00;;;4.43;;
47772;SDS011;33534;51.028;13.716;2022-11-02T16:32:30;9.65;;;3.85;;
47772;SDS011;33534;51.028;13.716;2022-11-02T16:34:57;10.50;;;3.85;;
47772;SDS011;33534;51.028;13.716;2022-11-02T16:37:25;10.88;;;4.57;;
47772;SDS011;33534;51.028;13.716;2022-11-02T16:39:51;9.45;;;3.85;;
47772;SDS011;33534;51.028;13.716;2022-11-02T16:42:20;7.25;;;3.22;;
47772;SDS011;33534;51.028;13.716;2022-11-02T16:44:56;10.55;;;3.58;;
47772;SDS011;33534;51.028;13.716;2022-11-02T16:47:39;9.57;;;3.65;;
47772;SDS011;33534;51.028;13.716;2022-11-02T16:50:24;10.82;;;3.28;;
47772;SDS011;33534;51.028;13.716;2022-11-02T16:58:05;10.32;;;3.95;;
47772;SDS011;33534;51.028;13.716;2022-11-02T17:00:32;12.00;;;4.03;;
47772;SDS011;33534;51.028;13.716;2022-11-02T17:03:05;6.95;;;3.20;;
47772;SDS011;33534;51.028;13.716;2022-11-02T17:05:31;8.82;;;3.50;;
47772;SDS011;33534;51.028;13.716;2022-11-02T17:10:28;9.90;;;2.92;;
47772;SDS011;33534;51.028;13.716;2022-11-02T17:12:54;10.60;;;3.30;;
47772;SDS011;33534;51.028;13.716;2022-11-02T17:15:22;9.85;;;3.95;;
47772;SDS011;33534;51.028;13.716;2022-11-02T17:17:49;11.20;;;3.80;;
47772;SDS011;33534;51.028;13.716;2022-11-02T17:23:01;16.55;;;4.68;;
47772;SDS011;33534;51.028;13.716;2022-11-02T17:25:28;16.30;;;4.10;;
47772;SDS011;33534;51.028;13.716;2022-11-02T17:27:55;10.25;;;4.30;;
47772;SDS011;33534;51.028;13.716;2022-11-02T17:33:07;10.10;;;3.50;;
47772;SDS011;33534;51.028;13.716;2022-11-02T17:35:33;9.10;;;3.55;;
47772;SDS011;33534;51.028;13.716;2022-11-02T17:38:00;11.20;;;4.05;;
47772;SDS011;33534;51.028;13.716;2022-11-02T17:40:26;11.55;;;3.92;;
47772;SDS011;33534;51.028;13.716;2022-11-02T17:42:52;12.10;;;4.18;;
47772;SDS011;33534;51.028;13.716;2022-11-02T17:45:32;10.63;;;3.65;;
47772;SDS011;33534;51.028;13.716;2022-11-02T17:47:59;11.77;;;4.10;;
47772;SDS011;33534;51.028;13.716;2022-11-02T17:50:26;10.18;;;3.70;;
47772;SDS011;33534;51.028;13.716;2022-11-02T17:52:52;13.20;;;3.35;;
47772;SDS011;33534;51.028;13.716;2022-11-02T17:55:19;10.32;;;3.83;;
47772;SDS011;33534;51.028;13.716;2022-11-02T17:57:46;8.55;;;4.43;;
47772;SDS011;33534;51.028;13.716;2022-11-02T18:00:13;10.60;;;3.78;;
47772;SDS011;33534;51.028;13.716;2022-11-02T18:02:41;11.73;;;4.10;;
47772;SDS011;33534;51.028;13.716;2022-11-02T18:07:57;13.88;;;4.97;;
47772;SDS011;33534;51.028;13.716;2022-11-02T18:10:30;10.98;;;4.70;;
47772;SDS011;33534;51.028;13.716;2022-11-02T18:12:56;14.93;;;4.68;;
47772;SDS011;33534;51.028;13.716;2022-11-02T18:15:23;7.32;;;4.05;;
47772;SDS011;33534;51.028;13.716;2022-11-02T18:17:49;12.88;;;5.00;;
47772;SDS011;33534;51.028;13.716;2022-11-02T18:20:16;13.63;;;5.10;;
47772;SDS011;33534;51.028;13.716;2022-11-02T18:22:42;10.57;;;4.20;;
47772;SDS011;33534;51.028;13.716;2022-11-02T18:25:09;14.18;;;5.20;;
47772;SDS011;33534;51.028;13.716;2022-11-02T18:27:36;10.02;;;4.90;;
47772;SDS011;33534;51.028;13.716;2022-11-02T18:30:02;12.88;;;5.18;;
47772;SDS011;33534;51.028;13.716;2022-11-02T18:32:28;8.48;;;4.88;;
47772;SDS011;33534;51.028;13.716;2022-11-02T18:34:54;19.00;;;7.80;;
47772;SDS011;33534;51.028;13.716;2022-11-02T18:37:20;35.40;;;16.08;;
47772;SDS011;33534;51.028;13.716;2022-11-02T18:39:49;55.97;;;30.17;;
47772;SDS011;33534;51.028;13.716;2022-11-02T18:42:15;27.55;;;13.75;;
47772;SDS011;33534;51.028;13.716;2022-11-02T18:44:41;39.83;;;19.45;;
47772;SDS011;33534;51.028;13.716;2022-11-02T18:47:07;41.42;;;22.10;;
47772;SDS011;33534;51.028;13.716;2022-11-02T18:49:33;38.13;;;18.02;;
47772;SDS011;33534;51.028;13.716;2022-11-02T18:51:59;18.88;;;8.35;;
47772;SDS011;33534;51.028;13.716;2022-11-02T18:54:25;14.52;;;7.38;;
47772;SDS011;33534;51.028;13.716;2022-11-02T18:56:51;17.83;;;9.10;;
47772;SDS011;33534;51.028;13.716;2022-11-02T18:59:17;25.45;;;13.27;;
47772;SDS011;33534;51.028;13.716;2022-11-02T19:01:43;21.98;;;11.00;;
47772;SDS011;33534;51.028;13.716;2022-11-02T19:04:09;17.52;;;10.23;;
47772;SDS011;33534;51.028;13.716;2022-11-02T19:06:35;16.05;;;8.25;;
47772;SDS011;33534;51.028;13.716;2022-11-02T19:09:20;18.88;;;8.68;;
47772;SDS011;33534;51.028;13.716;2022-11-02T19:14:26;17.95;;;7.53;;
47772;SDS011;33534;51.028;13.716;2022-11-02T19:16:52;20.20;;;8.77;;
47772;SDS011;33534;51.028;13.716;2022-11-02T19:19:18;20.23;;;8.85;;
47772;SDS011;33534;51.028;13.716;2022-11-02T19:21:45;14.85;;;6.15;;
47772;SDS011;33534;51.028;13.716;2022-11-02T19:24:11;25.83;;;13.75;;
47772;SDS011;33534;51.028;13.716;2022-11-02T19:26:37;20.73;;;8.73;;
47772;SDS011;33534;51.028;13.716;2022-11-02T19:29:03;17.77;;;7.25;;
47772;SDS011;33534;51.028;13.716;2022-11-02T19:31:30;37.88;;;18.80;;
47772;SDS011;33534;51.028;13.716;2022-11-02T19:33:56;24.98;;;13.80;;